^^
Datos históricos de la estación: Murcia-Puente Tocinos
Diario Informe para Abril 19, 2019 Unidades:  Ambas    Ingés   Métrico
Diario Semanal Mensual Anual
  Máxima: Mínima: Promedio:
Temperatura: 61.9 °F /  16.6 °C 46.2 °F /  7.9 °C 52.7 °F /  11.5 °C
Punto de rocio: 45.1 °F /  7.3 °C 33.6 °F /  0.9 °C 37.8 °F /  3.2 °C
Humedad: 77.6% 36.9% 58%
Velocidad viento: 7.4mph /  11.9km/h - 3.6mph /  5.8km/h
Racha viento: 14mph /  22.5km/h - -
Viento- - SO
Presión: 30 in /  1017.3 hPa 29.9 in /  1013.8 hPa -
Precipitación: 0 in /  0.0 mm    
 
 
Tabla de datos para Abril 19, 2019
Hora Temperatura Punto de rocio Presión Viento Velocidad viento Racha viento Humedad Intensidad lluvia(por hora) Nubes
00:04 50.5 °F /  10.3 °C 36.9 °F /  2.7 °C 30in /  1016.1hPa OSO 4.5mph /  7.2km/h 7mph /  11.3km/h 59.4% 0in /  0.0mm
00:09 50.4 °F /  10.2 °C 37 °F /  2.8 °C 30in /  1016.2hPa OSO 4mph /  6.5km/h 6.2mph /  10km/h 60% 0in /  0.0mm
00:14 50.2 °F /  10.1 °C 36.9 °F /  2.7 °C 30in /  1016.2hPa OSO 4mph /  6.5km/h 6mph /  9.7km/h 60% 0in /  0.0mm
00:17 50.2 °F /  10.1 °C 36.9 °F /  2.7 °C 30in /  1016.2hPa OSO 4mph /  6.5km/h 5mph /  8km/h 60.2% 0in /  0.0mm
00:24 50.2 °F /  10.1 °C 36.9 °F /  2.7 °C 30in /  1016.2hPa OSO 3.1mph /  5km/h 5.2mph /  8.4km/h 60% 0in /  0.0mm
00:25 50.2 °F /  10.1 °C 36.9 °F /  2.7 °C 30in /  1016.2hPa OSO 3.3mph /  5.3km/h 5mph /  8km/h 60% 0in /  0.0mm
00:34 50.5 °F /  10.3 °C 36.7 °F /  2.6 °C 30in /  1016.2hPa Oeste 3.5mph /  5.7km/h 8.5mph /  13.7km/h 58.9% 0in /  0.0mm
00:39 50.9 °F /  10.5 °C 36.5 °F /  2.5 °C 30in /  1016.2hPa Oeste 3.6mph /  5.8km/h 9.7mph /  15.6km/h 57.6% 0in /  0.0mm
00:44 51.4 °F /  10.8 °C 36.3 °F /  2.4 °C 30in /  1016.2hPa Oeste 4.5mph /  7.3km/h 10mph /  16.1km/h 56.1% 0in /  0.0mm
00:49 51.8 °F /  11 °C 36 °F /  2.2 °C 30in /  1016.2hPa Oeste 5.2mph /  8.4km/h 8.1mph /  13km/h 54.5% 0in /  0.0mm
00:54 52.2 °F /  11.2 °C 35.8 °F /  2.1 °C 30in /  1016.2hPa ONO 4.5mph /  7.3km/h 8.1mph /  13km/h 53.7% 0in /  0.0mm
00:59 52.3 °F /  11.3 °C 35.6 °F /  2 °C 30in /  1016.1hPa ONO 4mph /  6.5km/h 8.1mph /  13km/h 52.5% 0in /  0.0mm
01:04 52.5 °F /  11.4 °C 35.4 °F /  1.9 °C 30in /  1016.1hPa ONO 4.4mph /  7.1km/h 8mph /  12.9km/h 52% 0in /  0.0mm
01:09 52.5 °F /  11.4 °C 35.4 °F /  1.9 °C 30in /  1016.1hPa ONO 4.7mph /  7.6km/h 8.5mph /  13.7km/h 52% 0in /  0.0mm
01:14 52.5 °F /  11.4 °C 35.4 °F /  1.9 °C 30in /  1015.8hPa ONO 4.7mph /  7.6km/h 9mph /  14.5km/h 52% 0in /  0.0mm
01:19 52.5 °F /  11.4 °C 35.4 °F /  1.9 °C 30in /  1015.8hPa NO 4.7mph /  7.6km/h 5mph /  8km/h 52% 0in /  0.0mm
01:24 52.3 °F /  11.3 °C 35.2 °F /  1.8 °C 30in /  1015.8hPa Oeste 3.4mph /  5.4km/h 5mph /  8km/h 52% 0in /  0.0mm
01:29 52.2 °F /  11.2 °C 35.4 °F /  1.9 °C 30in /  1015.8hPa SO 2.4mph /  3.9km/h 6.9mph /  11.1km/h 52.8% 0in /  0.0mm
01:34 52.2 °F /  11.2 °C 35.4 °F /  1.9 °C 30in /  1015.8hPa OSO 2.4mph /  3.9km/h 7mph /  11.3km/h 53% 0in /  0.0mm
01:39 52 °F /  11.1 °C 35.4 °F /  1.9 °C 30in /  1015.8hPa OSO 2.4mph /  3.9km/h 7mph /  11.3km/h 53% 0in /  0.0mm
01:44 51.8 °F /  11 °C 35.2 °F /  1.8 °C 30in /  1015.8hPa Oeste 3.1mph /  5km/h 5.8mph /  9.3km/h 53% 0in /  0.0mm
01:49 51.4 °F /  10.8 °C 35.4 °F /  1.9 °C 30in /  1015.8hPa Oeste 3.6mph /  5.8km/h 6.9mph /  11.1km/h 53.9% 0in /  0.0mm
01:54 51.3 °F /  10.7 °C 35.2 °F /  1.8 °C 30in /  1015.9hPa Oeste 3.8mph /  6.1km/h 7.4mph /  11.9km/h 54% 0in /  0.0mm
01:59 51.3 °F /  10.7 °C 35.2 °F /  1.8 °C 30in /  1015.9hPa Oeste 4mph /  6.5km/h 7mph /  11.3km/h 54% 0in /  0.0mm
02:04 51.3 °F /  10.7 °C 35.2 °F /  1.8 °C 30in /  1015.9hPa Oeste 4.2mph /  6.8km/h 7mph /  11.3km/h 54% 0in /  0.0mm
02:09 50.9 °F /  10.5 °C 35.4 °F /  1.9 °C 30in /  1016.0hPa Oeste 4.3mph /  6.9km/h 6.9mph /  11.1km/h 55% 0in /  0.0mm
02:14 50.5 °F /  10.3 °C 35.4 °F /  1.9 °C 30in /  1016.0hPa ONO 4.2mph /  6.7km/h 7mph /  11.3km/h 55.8% 0in /  0.0mm
02:19 50.4 °F /  10.2 °C 35.2 °F /  1.8 °C 30in /  1016.0hPa NO 4mph /  6.5km/h 7.4mph /  11.9km/h 56.1% 0in /  0.0mm
02:24 50 °F /  10 °C 35.2 °F /  1.8 °C 30in /  1016.0hPa NO 4.4mph /  7.1km/h 9.2mph /  14.8km/h 57% 0in /  0.0mm
02:29 49.6 °F /  9.8 °C 35.2 °F /  1.8 °C 30in /  1015.8hPa ONO 4.7mph /  7.6km/h 9.2mph /  14.8km/h 57.8% 0in /  0.0mm
02:34 49.3 °F /  9.6 °C 35.2 °F /  1.8 °C 30in /  1015.8hPa OSO 4.7mph /  7.6km/h 8mph /  12.9km/h 58.4% 0in /  0.0mm
02:39 49.1 °F /  9.5 °C 35.4 °F /  1.9 °C 30in /  1015.8hPa Sur 4.7mph /  7.6km/h 8.5mph /  13.7km/h 59.2% 0in /  0.0mm
02:44 48.7 °F /  9.3 °C 36 °F /  2.2 °C 30in /  1015.8hPa SSE 4.3mph /  6.9km/h 9mph /  14.5km/h 61.1% 0in /  0.0mm
02:49 48.6 °F /  9.2 °C 36 °F /  2.2 °C 30in /  1015.8hPa Sur 4mph /  6.5km/h 7mph /  11.3km/h 61.7% 0in /  0.0mm
02:54 48.7 °F /  9.3 °C 35.8 °F /  2.1 °C 30in /  1015.9hPa Sur 4.2mph /  6.7km/h 9.2mph /  14.8km/h 61.1% 0in /  0.0mm
02:59 48.9 °F /  9.4 °C 35.8 °F /  2.1 °C 30in /  1015.9hPa Sur 4.3mph /  6.9km/h 9.2mph /  14.8km/h 60.3% 0in /  0.0mm
03:04 49.3 °F /  9.6 °C 35.6 °F /  2 °C 30in /  1015.9hPa SSO 5.3mph /  8.5km/h 9.7mph /  15.6km/h 59.1% 0in /  0.0mm
03:09 50.2 °F /  10.1 °C 35.1 °F /  1.7 °C 30in /  1015.9hPa SO 5.9mph /  9.5km/h 11.5mph /  18.5km/h 55.9% 0in /  0.0mm
03:14 50.9 °F /  10.5 °C 35.1 °F /  1.7 °C 30in /  1015.9hPa Oeste 5.2mph /  8.4km/h 12mph /  19.3km/h 54.3% 0in /  0.0mm
03:19 51.3 °F /  10.7 °C 34.9 °F /  1.6 °C 30in /  1015.9hPa OSO 4.7mph /  7.6km/h 6.9mph /  11.1km/h 53.6% 0in /  0.0mm
03:24 51.4 °F /  10.8 °C 34.7 °F /  1.5 °C 30in /  1015.9hPa SSO 4.1mph /  6.6km/h 7mph /  11.3km/h 52.6% 0in /  0.0mm
03:29 51.6 °F /  10.9 °C 34.5 °F /  1.4 °C 30in /  1015.7hPa SSO 3.6mph /  5.8km/h 6.9mph /  11.1km/h 52% 0in /  0.0mm
03:34 51.6 °F /  10.9 °C 34.7 °F /  1.5 °C 30in /  1015.7hPa SSE 3.8mph /  6.1km/h 7mph /  11.3km/h 52.5% 0in /  0.0mm
03:39 51.4 °F /  10.8 °C 34.9 °F /  1.6 °C 30in /  1015.8hPa SSE 4mph /  6.5km/h 6mph /  9.7km/h 53.2% 0in /  0.0mm
03:44 51.1 °F /  10.6 °C 35.1 °F /  1.7 °C 30in /  1015.8hPa SE 2.9mph /  4.7km/h 3.5mph /  5.6km/h 54.1% 0in /  0.0mm
03:49 50.5 °F /  10.3 °C 35.1 °F /  1.7 °C 30in /  1015.8hPa ESE 2mph /  3.2km/h 3mph /  4.8km/h 55% 0in /  0.0mm
03:54 50.4 °F /  10.2 °C 35.1 °F /  1.7 °C 30in /  1015.8hPa SSE 1.7mph /  2.7km/h 4.6mph /  7.4km/h 55.9% 0in /  0.0mm
03:59 49.8 °F /  9.9 °C 34.7 °F /  1.5 °C 30in /  1015.7hPa SSE 1.4mph /  2.2km/h 5mph /  8km/h 56% 0in /  0.0mm
04:04 49.6 °F /  9.8 °C 35.1 °F /  1.7 °C 30in /  1015.7hPa ONO 1.7mph /  2.7km/h 5.8mph /  9.3km/h 56.8% 0in /  0.0mm
04:09 49.3 °F /  9.6 °C 34.9 °F /  1.6 °C 30in /  1015.7hPa ONO 1.8mph /  2.9km/h 6mph /  9.7km/h 57.7% 0in /  0.0mm
04:14 48.9 °F /  9.4 °C 35.1 °F /  1.7 °C 30in /  1015.5hPa OSO 2.4mph /  3.9km/h 6.2mph /  10km/h 58.6% 0in /  0.0mm
04:19 48.6 °F /  9.2 °C 35.1 °F /  1.7 °C 30in /  1015.5hPa SO 2.9mph /  4.6km/h 6mph /  9.7km/h 59.7% 0in /  0.0mm
04:24 48.4 °F /  9.1 °C 35.4 °F /  1.9 °C 30in /  1015.5hPa SO 3.3mph /  5.3km/h 6mph /  9.7km/h 60.7% 0in /  0.0mm
04:29 48.2 °F /  9 °C 35.2 °F /  1.8 °C 30in /  1015.5hPa SSO 3.6mph /  5.8km/h 6mph /  9.7km/h 61% 0in /  0.0mm
04:34 48.2 °F /  9 °C 35.4 °F /  1.9 °C 30in /  1015.5hPa Oeste 3.3mph /  5.3km/h 6.9mph /  11.1km/h 61% 0in /  0.0mm
04:39 48 °F /  8.9 °C 35.2 °F /  1.8 °C 30in /  1015.7hPa OSO 3.1mph /  5km/h 7mph /  11.3km/h 61% 0in /  0.0mm
04:44 47.8 °F /  8.8 °C 35.1 °F /  1.7 °C 30in /  1015.7hPa SO 4mph /  6.4km/h 8.5mph /  13.7km/h 61% 0in /  0.0mm
04:49 48.4 °F /  9.1 °C 34.9 °F /  1.6 °C 30in /  1015.7hPa SSO 4.7mph /  7.6km/h 11.5mph /  18.5km/h 59.7% 0in /  0.0mm
04:54 48.9 °F /  9.4 °C 34.7 °F /  1.5 °C 30in /  1015.7hPa SSO 5.7mph /  9.1km/h 12.7mph /  20.4km/h 58.1% 0in /  0.0mm
04:59 48.9 °F /  9.4 °C 34.7 °F /  1.5 °C 30in /  1015.7hPa SO 6.4mph /  10.3km/h 13mph /  20.9km/h 57.8% 0in /  0.0mm
05:04 49.1 °F /  9.5 °C 34.5 °F /  1.4 °C 30in /  1015.7hPa SO 6.8mph /  10.9km/h 12mph /  19.3km/h 57% 0in /  0.0mm
05:09 49.3 °F /  9.6 °C 34.7 °F /  1.5 °C 30in /  1015.8hPa SO 6.9mph /  11.1km/h 11mph /  17.7km/h 57% 0in /  0.0mm
05:14 49.5 °F /  9.7 °C 34.5 °F /  1.4 °C 30in /  1015.8hPa OSO 6.3mph /  10.2km/h 10mph /  16.1km/h 56.6% 0in /  0.0mm
05:19 49.5 °F /  9.7 °C 34.3 °F /  1.3 °C 30in /  1015.8hPa SO 5.9mph /  9.5km/h 9mph /  14.5km/h 56% 0in /  0.0mm
05:24 49.5 °F /  9.7 °C 34.3 °F /  1.3 °C 30in /  1015.8hPa SO 5.5mph /  8.9km/h 10.7mph /  17.2km/h 56% 0in /  0.0mm
05:29 49.6 °F /  9.8 °C 34.5 °F /  1.4 °C 30in /  1015.8hPa SO 5.2mph /  8.4km/h 11.4mph /  18.3km/h 55.8% 0in /  0.0mm
05:34 49.8 °F /  9.9 °C 34.3 °F /  1.3 °C 30in /  1015.8hPa OSO 5.8mph /  9.4km/h 13.8mph /  22.2km/h 55% 0in /  0.0mm
05:39 50 °F /  10 °C 34.5 °F /  1.4 °C 30in /  1015.9hPa OSO 6.4mph /  10.3km/h 14mph /  22.5km/h 55% 0in /  0.0mm
05:44 50 °F /  10 °C 34.3 °F /  1.3 °C 30in /  1015.9hPa OSO 6.2mph /  9.9km/h 12mph /  19.3km/h 55% 0in /  0.0mm
05:49 49.6 °F /  9.8 °C 34.3 °F /  1.3 °C 30in /  1015.9hPa OSO 5.9mph /  9.5km/h 9.2mph /  14.8km/h 55.5% 0in /  0.0mm
05:54 49.5 °F /  9.7 °C 34.3 °F /  1.3 °C 30in /  1016.0hPa OSO 5.5mph /  8.8km/h 9mph /  14.5km/h 56% 0in /  0.0mm
05:59 49.5 °F /  9.7 °C 34.2 °F /  1.2 °C 30in /  1016.0hPa SO 5.2mph /  8.4km/h 13mph /  20.9km/h 55.6% 0in /  0.0mm
06:04 49.6 °F /  9.8 °C 34.2 °F /  1.2 °C 30in /  1016.0hPa OSO 5.3mph /  8.6km/h 13mph /  20.9km/h 55% 0in /  0.0mm
06:09 49.6 °F /  9.8 °C 34.2 °F /  1.2 °C 30in /  1016.0hPa OSO 5.4mph /  8.7km/h 9mph /  14.5km/h 55% 0in /  0.0mm
06:14 49.8 °F /  9.9 °C 34 °F /  1.1 °C 30in /  1016.0hPa SO 5.4mph /  8.7km/h 9.2mph /  14.8km/h 54.1% 0in /  0.0mm
06:19 50.2 °F /  10.1 °C 34.2 °F /  1.2 °C 30in /  1016.0hPa OSO 5.4mph /  8.7km/h 9.2mph /  14.8km/h 54% 0in /  0.0mm
06:24 50.2 °F /  10.1 °C 34.2 °F /  1.2 °C 30in /  1016.2hPa OSO 5.7mph /  9.2km/h 9mph /  14.5km/h 54% 0in /  0.0mm
06:29 50 °F /  10 °C 34.2 °F /  1.2 °C 30in /  1016.2hPa OSO 5.9mph /  9.5km/h 9mph /  14.5km/h 54% 0in /  0.0mm
06:34 49.8 °F /  9.9 °C 34 °F /  1.1 °C 30in /  1016.2hPa SSO 5.9mph /  9.5km/h 13.8mph /  22.2km/h 54.3% 0in /  0.0mm
06:39 49.3 °F /  9.6 °C 34 °F /  1.1 °C 30in /  1016.2hPa SO 5.9mph /  9.5km/h 14mph /  22.5km/h 55.6% 0in /  0.0mm
06:44 48.7 °F /  9.3 °C 34.2 °F /  1.2 °C 30in /  1016.2hPa SO 6.8mph /  10.9km/h 12mph /  19.3km/h 56.7% 0in /  0.0mm
06:49 48.6 °F /  9.2 °C 34 °F /  1.1 °C 30in /  1016.2hPa OSO 7.4mph /  11.9km/h 10.4mph /  16.7km/h 57% 0in /  0.0mm
06:54 48.6 °F /  9.2 °C 34 °F /  1.1 °C 30in /  1016.2hPa OSO 7.4mph /  11.9km/h 11.5mph /  18.5km/h 57% 0in /  0.0mm
06:59 48.6 °F /  9.2 °C 34.2 °F /  1.2 °C 30in /  1016.2hPa OSO 7.4mph /  11.9km/h 12mph /  19.3km/h 57.3% 0in /  0.0mm
07:04 48.2 °F /  9 °C 34 °F /  1.1 °C 30in /  1016.2hPa OSO 7.4mph /  11.9km/h 12.3mph /  19.8km/h 58% 0in /  0.0mm
07:09 47.8 °F /  8.8 °C 34 °F /  1.1 °C 30in /  1016.2hPa OSO 7.4mph /  11.9km/h 13mph /  20.9km/h 58.4% 0in /  0.0mm
07:14 47.8 °F /  8.8 °C 34 °F /  1.1 °C 30in /  1016.1hPa OSO 7.4mph /  11.9km/h 13mph /  20.9km/h 58.5% 0in /  0.0mm
07:19 47.8 °F /  8.8 °C 34.2 °F /  1.2 °C 30in /  1016.1hPa Oeste 7.4mph /  11.9km/h 13mph /  20.9km/h 58.5% 0in /  0.0mm
07:24 47.8 °F /  8.8 °C 34.2 °F /  1.2 °C 30in /  1016.1hPa ONO 5.5mph /  8.9km/h 8mph /  12.9km/h 59% 0in /  0.0mm
07:29 47.7 °F /  8.7 °C 34 °F /  1.1 °C 30in /  1016.1hPa OSO 4.3mph /  6.9km/h 6.2mph /  10km/h 59.1% 0in /  0.0mm
07:34 47.3 °F /  8.5 °C 34.2 °F /  1.2 °C 30in /  1016.1hPa SE 3.1mph /  5km/h 6.2mph /  10km/h 60.4% 0in /  0.0mm
07:39 46.6 °F /  8.1 °C 34.3 °F /  1.3 °C 30in /  1016.4hPa SSE 2.4mph /  3.9km/h 6.9mph /  11.1km/h 62% 0in /  0.0mm
07:44 46.2 °F /  7.9 °C 34.3 °F /  1.3 °C 30in /  1016.4hPa SSO 3.3mph /  5.3km/h 7mph /  11.3km/h 62.8% 0in /  0.0mm
07:49 46.8 °F /  8.2 °C 34.2 °F /  1.2 °C 30in /  1016.4hPa SO 4mph /  6.5km/h 8.5mph /  13.7km/h 61.7% 0in /  0.0mm
07:54 47.1 °F /  8.4 °C 34 °F /  1.1 °C 30in /  1016.4hPa OSO 4.8mph /  7.8km/h 10.4mph /  16.7km/h 60% 0in /  0.0mm
07:59 47.5 °F /  8.6 °C 33.8 °F /  1 °C 30in /  1016.4hPa OSO 5.4mph /  8.7km/h 10mph /  16.1km/h 58.9% 0in /  0.0mm
08:04 47.7 °F /  8.7 °C 34 °F /  1.1 °C 30in /  1016.4hPa OSO 5.7mph /  9.2km/h 9.2mph /  14.8km/h 59% 0in /  0.0mm
08:09 47.3 °F /  8.5 °C 33.8 °F /  1 °C 30in /  1016.5hPa Oeste 5.9mph /  9.5km/h 10.4mph /  16.7km/h 59% 0in /  0.0mm
08:14 47.1 °F /  8.4 °C 33.6 °F /  0.9 °C 30in /  1016.5hPa Oeste 6.2mph /  10km/h 10.4mph /  16.7km/h 59.1% 0in /  0.0mm
08:19 46.9 °F /  8.3 °C 33.6 °F /  0.9 °C 30in /  1016.5hPa Oeste 6.4mph /  10.3km/h 10.7mph /  17.2km/h 59.6% 0in /  0.0mm
08:24 47.3 °F /  8.5 °C 33.6 °F /  0.9 °C 30in /  1016.6hPa Oeste 6.4mph /  10.3km/h 11mph /  17.7km/h 59% 0in /  0.0mm
08:29 47.5 °F /  8.6 °C 34 °F /  1.1 °C 30in /  1016.6hPa Oeste 6.4mph /  10.3km/h 10mph /  16.1km/h 59% 0in /  0.0mm
08:34 47.7 °F /  8.7 °C 34.2 °F /  1.2 °C 30in /  1016.6hPa Oeste 5.3mph /  8.5km/h 7mph /  11.3km/h 59% 0in /  0.0mm
08:39 48 °F /  8.9 °C 34.3 °F /  1.3 °C 30in /  1016.9hPa Sur 4.3mph /  6.9km/h 5.2mph /  8.4km/h 58.8% 0in /  0.0mm
08:44 48.2 °F /  9 °C 34.3 °F /  1.3 °C 30in /  1016.9hPa SSE 2.9mph /  4.7km/h 7.4mph /  11.9km/h 58.2% 0in /  0.0mm
08:49 47.7 °F /  8.7 °C 34.2 °F /  1.2 °C 30in /  1016.9hPa SSE 2mph /  3.2km/h 8.1mph /  13km/h 59% 0in /  0.0mm
08:54 47.7 °F /  8.7 °C 34 °F /  1.1 °C 30in /  1017.1hPa SSE 4mph /  6.4km/h 8.1mph /  13km/h 59% 0in /  0.0mm
08:59 47.8 °F /  8.8 °C 34.2 °F /  1.2 °C 30in /  1017.1hPa SSO 5.4mph /  8.7km/h 8mph /  12.9km/h 59% 0in /  0.0mm
09:04 48.2 °F /  9 °C 34.3 °F /  1.3 °C 30in /  1017.1hPa OSO 4.5mph /  7.3km/h 6.2mph /  10km/h 58.3% 0in /  0.0mm
09:09 48.6 °F /  9.2 °C 34.3 °F /  1.3 °C 30in /  1017.2hPa SO 4mph /  6.5km/h 8.5mph /  13.7km/h 58% 0in /  0.0mm
09:14 48.9 °F /  9.4 °C 34.7 °F /  1.5 °C 30in /  1017.2hPa SO 4.4mph /  7.1km/h 9.2mph /  14.8km/h 58% 0in /  0.0mm
09:19 49.1 °F /  9.5 °C 34.7 °F /  1.5 °C 30in /  1017.2hPa SSO 4.7mph /  7.6km/h 9.7mph /  15.6km/h 57.4% 0in /  0.0mm
09:24 49.3 °F /  9.6 °C 34.7 °F /  1.5 °C 30in /  1017.3hPa SO 5.4mph /  8.7km/h 10mph /  16.1km/h 57% 0in /  0.0mm
09:29 49.6 °F /  9.8 °C 34.5 °F /  1.4 °C 30in /  1017.3hPa OSO 5.9mph /  9.5km/h 9.2mph /  14.8km/h 56.1% 0in /  0.0mm
09:34 49.8 °F /  9.9 °C 34.3 °F /  1.3 °C 30in /  1017.3hPa OSO 5.6mph /  9km/h 10.4mph /  16.7km/h 55.1% 0in /  0.0mm
09:35 50 °F /  10 °C 34.5 °F /  1.4 °C 30in /  1017.3hPa OSO 5.5mph /  8.8km/h 10.4mph /  16.7km/h 55% 0in /  0.0mm
10:01 51.1 °F /  10.6 °C 34.2 °F /  1.2 °C 30in /  1017.3hPa SO 7.4mph /  11.9km/h 13.8mph /  22.2km/h 52% 0in /  0.0mm
15:24 60.6 °F /  15.9 °C 34.7 °F /  1.5 °C 30in /  1014.2hPa Oeste 6.2mph /  10km/h 13.8mph /  22.2km/h 37.6% 0in /  0.0mm
15:27 60.6 °F /  15.9 °C 34.9 °F /  1.6 °C 30in /  1014.2hPa NO 6.2mph /  10km/h 14mph /  22.5km/h 38.1% 0in /  0.0mm
15:34 60.8 °F /  16 °C 34.3 °F /  1.3 °C 30in /  1014.2hPa Oeste 5.4mph /  8.7km/h 8.7mph /  14km/h 37% 0in /  0.0mm
15:39 61 °F /  16.1 °C 34.7 °F /  1.5 °C 30in /  1014.2hPa OSO 5.4mph /  8.7km/h 9.2mph /  14.8km/h 37.3% 0in /  0.0mm
15:44 61 °F /  16.1 °C 34.5 °F /  1.4 °C 29.9in /  1014.1hPa SSO 5.3mph /  8.5km/h 9mph /  14.5km/h 37% 0in /  0.0mm
15:49 61.2 °F /  16.2 °C 34.7 °F /  1.5 °C 29.9in /  1014.1hPa NO 5.2mph /  8.4km/h 6mph /  9.7km/h 37% 0in /  0.0mm
15:54 61.3 °F /  16.3 °C 34.9 °F /  1.6 °C 29.9in /  1014.1hPa OSO 3.5mph /  5.7km/h 6.9mph /  11.1km/h 37% 0in /  0.0mm
15:59 61.5 °F /  16.4 °C 35.1 °F /  1.7 °C 29.9in /  1014.0hPa Oeste 2.4mph /  3.9km/h 7mph /  11.3km/h 37% 0in /  0.0mm
16:04 61.5 °F /  16.4 °C 35.1 °F /  1.7 °C 29.9in /  1014.0hPa OSO 2.8mph /  4.5km/h 6mph /  9.7km/h 37% 0in /  0.0mm
16:09 61.7 °F /  16.5 °C 35.1 °F /  1.7 °C 29.9in /  1014.0hPa ONO 3.1mph /  5km/h 5mph /  8km/h 36.9% 0in /  0.0mm
16:14 61.9 °F /  16.6 °C 35.2 °F /  1.8 °C 29.9in /  1014.0hPa ONO 2.7mph /  4.3km/h 6.9mph /  11.1km/h 37% 0in /  0.0mm
16:19 61.7 °F /  16.5 °C 35.1 °F /  1.7 °C 29.9in /  1014.0hPa Oeste 2.4mph /  3.9km/h 8.1mph /  13km/h 37% 0in /  0.0mm
16:24 61.5 °F /  16.4 °C 35.2 °F /  1.8 °C 29.9in /  1014.1hPa OSO 2.7mph /  4.3km/h 8mph /  12.9km/h 37.4% 0in /  0.0mm
16:29 61.3 °F /  16.3 °C 35.2 °F /  1.8 °C 29.9in /  1014.1hPa OSO 2.9mph /  4.6km/h 5.9mph /  9.5km/h 37.5% 0in /  0.0mm
16:34 61.3 °F /  16.3 °C 35.4 °F /  1.9 °C 29.9in /  1014.1hPa Oeste 2.6mph /  4.2km/h 6mph /  9.7km/h 37.8% 0in /  0.0mm
16:39 61.3 °F /  16.3 °C 35.4 °F /  1.9 °C 29.9in /  1014.1hPa NO 2.4mph /  3.9km/h 4mph /  6.4km/h 38% 0in /  0.0mm
16:44 61.3 °F /  16.3 °C 35.4 °F /  1.9 °C 29.9in /  1014.0hPa NO 1.8mph /  2.9km/h 3.5mph /  5.6km/h 37.9% 0in /  0.0mm
16:49 61.3 °F /  16.3 °C 35.1 °F /  1.7 °C 29.9in /  1014.0hPa NO 1.4mph /  2.2km/h 3mph /  4.8km/h 37.4% 0in /  0.0mm
16:54 61.3 °F /  16.3 °C 34.9 °F /  1.6 °C 29.9in /  1014.0hPa NO 1.4mph /  2.2km/h 3mph /  4.8km/h 37% 0in /  0.0mm
16:59 61.3 °F /  16.3 °C 34.9 °F /  1.6 °C 29.9in /  1013.8hPa NO 1.4mph /  2.2km/h 3.5mph /  5.6km/h 37.2% 0in /  0.0mm
17:04 61.2 °F /  16.2 °C 35.2 °F /  1.8 °C 29.9in /  1013.8hPa NO 1.4mph /  2.2km/h 3.5mph /  5.6km/h 38% 0in /  0.0mm
17:09 61 °F /  16.1 °C 35.2 °F /  1.8 °C 29.9in /  1013.8hPa NO 1.4mph /  2.2km/h 2.3mph /  3.7km/h 38.1% 0in /  0.0mm
17:14 60.8 °F /  16 °C 35.6 °F /  2 °C 29.9in /  1013.8hPa NO 0.6mph /  0.9km/h 2mph /  3.2km/h 39% 0in /  0.0mm
17:19 60.6 °F /  15.9 °C 35.2 °F /  1.8 °C 29.9in /  1013.8hPa Calm   1.8mph /  2.9km/h 38.7% 0in /  0.0mm
17:24 60.4 °F /  15.8 °C 34.7 °F /  1.5 °C 29.9in /  1013.8hPa Calm   3.5mph /  5.6km/h 38% 0in /  0.0mm
17:29 60.4 °F /  15.8 °C 35.1 °F /  1.7 °C 29.9in /  1013.8hPa Calm   3.6mph /  5.8km/h 38.5% 0in /  0.0mm
17:34 60.3 °F /  15.7 °C 36.3 °F /  2.4 °C 29.9in /  1013.8hPa ESE 1mph /  1.6km/h 6.2mph /  10km/h 41% 0in /  0.0mm
17:39 59.7 °F /  15.4 °C 37.4 °F /  3 °C 29.9in /  1013.9hPa ESE 1.8mph /  2.9km/h 6.4mph /  10.3km/h 43.4% 0in /  0.0mm
17:44 59 °F /  15 °C 37.9 °F /  3.3 °C 29.9in /  1013.9hPa ESE 3.1mph /  5km/h 7mph /  11.3km/h 45.4% 0in /  0.0mm
17:49 58.5 °F /  14.7 °C 38.1 °F /  3.4 °C 29.9in /  1013.9hPa ESE 4mph /  6.5km/h 7mph /  11.3km/h 46.8% 0in /  0.0mm
17:54 57.7 °F /  14.3 °C 38.1 °F /  3.4 °C 29.9in /  1014.0hPa ESE 4mph /  6.5km/h 7mph /  11.3km/h 47.6% 0in /  0.0mm
17:59 57.6 °F /  14.2 °C 38.1 °F /  3.4 °C 29.9in /  1014.0hPa ESE 4mph /  6.5km/h 7.6mph /  12.2km/h 48.4% 0in /  0.0mm
18:04 57.2 °F /  14 °C 38.8 °F /  3.8 °C 29.9in /  1014.0hPa SE 4mph /  6.5km/h 8.1mph /  13km/h 50.3% 0in /  0.0mm
18:09 57.2 °F /  14 °C 39.4 °F /  4.1 °C 29.9in /  1014.1hPa ESE 4mph /  6.5km/h 8mph /  12.9km/h 51.2% 0in /  0.0mm
18:14 57.2 °F /  14 °C 39.7 °F /  4.3 °C 29.9in /  1014.1hPa SE 3.1mph /  5km/h 6mph /  9.7km/h 52% 0in /  0.0mm
18:19 57.2 °F /  14 °C 40.1 °F /  4.5 °C 29.9in /  1014.1hPa SSE 2.4mph /  3.9km/h 5mph /  8km/h 52.9% 0in /  0.0mm
18:24 57 °F /  13.9 °C 40.1 °F /  4.5 °C 30in /  1014.2hPa SSE 2.4mph /  3.9km/h 5mph /  8km/h 53.1% 0in /  0.0mm
18:29 57 °F /  13.9 °C 41 °F /  5 °C 30in /  1014.2hPa SSE 2.4mph /  3.9km/h 5.4mph /  8.7km/h 54.9% 0in /  0.0mm
18:34 57 °F /  13.9 °C 42.1 °F /  5.6 °C 30in /  1014.2hPa Sur 2.7mph /  4.3km/h 8.1mph /  13km/h 57.4% 0in /  0.0mm
18:39 57 °F /  13.9 °C 42.8 °F /  6 °C 30in /  1014.2hPa Sur 2.9mph /  4.6km/h 8.1mph /  13km/h 58.8% 0in /  0.0mm
18:44 57 °F /  13.9 °C 43.5 °F /  6.4 °C 30in /  1014.2hPa Sur 3.7mph /  5.9km/h 9.2mph /  14.8km/h 60.5% 0in /  0.0mm
18:49 57 °F /  13.9 °C 44.1 °F /  6.7 °C 30in /  1014.2hPa Sur 4.3mph /  6.9km/h 9mph /  14.5km/h 61.7% 0in /  0.0mm
18:54 57.2 °F /  14 °C 44.4 °F /  6.9 °C 30in /  1014.4hPa Sur 5mph /  8km/h 8.1mph /  13km/h 62.4% 0in /  0.0mm
18:59 57 °F /  13.9 °C 44.6 °F /  7 °C 30in /  1014.4hPa SSE 5.4mph /  8.7km/h 8.1mph /  13km/h 63% 0in /  0.0mm
19:04 57 °F /  13.9 °C 44.4 °F /  6.9 °C 30in /  1014.4hPa SSE 5.4mph /  8.7km/h 8mph /  12.9km/h 63% 0in /  0.0mm
19:09 57 °F /  13.9 °C 45 °F /  7.2 °C 30in /  1014.4hPa SSE 5.4mph /  8.7km/h 7.4mph /  11.9km/h 63.9% 0in /  0.0mm
19:14 57 °F /  13.9 °C 45 °F /  7.2 °C 30in /  1014.4hPa SE 4.7mph /  7.5km/h 7mph /  11.3km/h 64% 0in /  0.0mm
19:19 56.8 °F /  13.8 °C 45 °F /  7.2 °C 30in /  1014.4hPa ESE 4mph /  6.5km/h 5.8mph /  9.3km/h 64.2% 0in /  0.0mm
19:24 56.5 °F /  13.6 °C 45 °F /  7.2 °C 30in /  1014.5hPa SE 3.4mph /  5.4km/h 6mph /  9.7km/h 65% 0in /  0.0mm
19:29 56.3 °F /  13.5 °C 45 °F /  7.2 °C 30in /  1014.5hPa SE 2.9mph /  4.6km/h 5mph /  8km/h 66% 0in /  0.0mm
19:34 56.1 °F /  13.4 °C 45 °F /  7.2 °C 30in /  1014.5hPa SE 2mph /  3.2km/h 2.3mph /  3.7km/h 66% 0in /  0.0mm
19:39 56.1 °F /  13.4 °C 45 °F /  7.2 °C 30in /  1014.5hPa SE 1.4mph /  2.2km/h 2mph /  3.2km/h 66% 0in /  0.0mm
19:44 55.9 °F /  13.3 °C 45.1 °F /  7.3 °C 30in /  1014.5hPa SSE 0.6mph /  1km/h 4.6mph /  7.4km/h 67% 0in /  0.0mm
19:49 55.9 °F /  13.3 °C 45 °F /  7.2 °C 30in /  1014.5hPa Calm   7.4mph /  11.9km/h 66.8% 0in /  0.0mm
19:54 55.4 °F /  13 °C 44.2 °F /  6.8 °C 30in /  1014.7hPa NO 1.9mph /  3.1km/h 7.4mph /  11.9km/h 66% 0in /  0.0mm
19:59 54.9 °F /  12.7 °C 43.7 °F /  6.5 °C 30in /  1014.7hPa NO 3.6mph /  5.8km/h 7mph /  11.3km/h 66% 0in /  0.0mm
20:04 54.3 °F /  12.4 °C 43.2 °F /  6.2 °C 30in /  1014.7hPa NO 3.9mph /  6.2km/h 6mph /  9.7km/h 66% 0in /  0.0mm
20:09 54.1 °F /  12.3 °C 43 °F /  6.1 °C 30in /  1014.7hPa NO 4mph /  6.5km/h 6mph /  9.7km/h 65.8% 0in /  0.0mm
20:14 54.1 °F /  12.3 °C 42.6 °F /  5.9 °C 30in /  1014.7hPa NO 3.4mph /  5.4km/h 5mph /  8km/h 65.1% 0in /  0.0mm
20:19 54.1 °F /  12.3 °C 42.6 °F /  5.9 °C 30in /  1014.7hPa NO 2.9mph /  4.6km/h 4.6mph /  7.4km/h 65% 0in /  0.0mm
20:24 54.1 °F /  12.3 °C 42.6 °F /  5.9 °C 30in /  1014.7hPa ONO 2.6mph /  4.2km/h 5mph /  8km/h 65% 0in /  0.0mm
20:29 54.1 °F /  12.3 °C 42.8 °F /  6 °C 30in /  1014.7hPa ONO 2.4mph /  3.9km/h 5mph /  8km/h 65% 0in /  0.0mm
20:34 54.1 °F /  12.3 °C 42.6 °F /  5.9 °C 30in /  1014.7hPa ONO 2.2mph /  3.5km/h 3.5mph /  5.6km/h 65% 0in /  0.0mm
20:39 54.1 °F /  12.3 °C 42.4 °F /  5.8 °C 30in /  1014.7hPa NNE 2mph /  3.2km/h 3.6mph /  5.8km/h 64.4% 0in /  0.0mm
20:44 54.1 °F /  12.3 °C 42.4 °F /  5.8 °C 30in /  1014.7hPa NNE 1.6mph /  2.6km/h 4mph /  6.4km/h 64.8% 0in /  0.0mm
20:49 54.1 °F /  12.3 °C 43.2 °F /  6.2 °C 30in /  1014.7hPa Este 1.4mph /  2.2km/h 4.7mph /  7.6km/h 66.4% 0in /  0.0mm
20:54 54.1 °F /  12.3 °C 43.3 °F /  6.3 °C 30in /  1014.7hPa Este 1.7mph /  2.8km/h 5mph /  8km/h 67% 0in /  0.0mm
20:59 54.1 °F /  12.3 °C 43.9 °F /  6.6 °C 30in /  1014.7hPa Este 2mph /  3.2km/h 3mph /  4.8km/h 68% 0in /  0.0mm
21:04 54.1 °F /  12.3 °C 43.9 °F /  6.6 °C 30in /  1014.7hPa ESE 0.7mph /  1.1km/h 2mph /  3.2km/h 68% 0in /  0.0mm
21:09 54.1 °F /  12.3 °C 43.7 °F /  6.5 °C 30in /  1014.7hPa Calm     68% 0in /  0.0mm
21:14 54 °F /  12.2 °C 43.5 °F /  6.4 °C 30in /  1014.7hPa Calm     68% 0in /  0.0mm
21:19 54 °F /  12.2 °C 43.9 °F /  6.6 °C 30in /  1014.7hPa Calm     68.8% 0in /  0.0mm
21:24 54 °F /  12.2 °C 43.7 °F /  6.5 °C 30in /  1014.7hPa Calm   2.9mph /  4.7km/h 68.2% 0in /  0.0mm
21:29 54 °F /  12.2 °C 43.2 °F /  6.2 °C 30in /  1014.7hPa Calm   3mph /  4.8km/h 67% 0in /  0.0mm
21:34 54 °F /  12.2 °C 43 °F /  6.1 °C 30in /  1014.7hPa Calm   2mph /  3.2km/h 66.2% 0in /  0.0mm
21:39 54 °F /  12.2 °C 42.4 °F /  5.8 °C 30in /  1014.8hPa Calm     65% 0in /  0.0mm
21:44 54 °F /  12.2 °C 42.6 °F /  5.9 °C 30in /  1014.8hPa Calm   3.5mph /  5.6km/h 65.4% 0in /  0.0mm
21:49 53.8 °F /  12.1 °C 42.6 °F /  5.9 °C 30in /  1014.8hPa Calm   3mph /  4.8km/h 65.8% 0in /  0.0mm
21:54 53.8 °F /  12.1 °C 43 °F /  6.1 °C 30in /  1014.8hPa SSO 0.8mph /  1.3km/h 4.6mph /  7.4km/h 66.7% 0in /  0.0mm
21:59 53.8 °F /  12.1 °C 43.3 °F /  6.3 °C 30in /  1014.8hPa SSO 1.4mph /  2.2km/h 5mph /  8km/h 67.5% 0in /  0.0mm
22:04 54 °F /  12.2 °C 43.5 °F /  6.4 °C 30in /  1014.8hPa SSO 2.3mph /  3.7km/h 5mph /  8km/h 67.6% 0in /  0.0mm
22:09 54.1 °F /  12.3 °C 43.7 °F /  6.5 °C 30in /  1014.8hPa SSO 2.9mph /  4.6km/h 5.8mph /  9.3km/h 67.6% 0in /  0.0mm
22:14 54.1 °F /  12.3 °C 43.3 °F /  6.3 °C 30in /  1014.7hPa SSO 3mph /  4.8km/h 6mph /  9.7km/h 67% 0in /  0.0mm
22:19 54.3 °F /  12.4 °C 43.3 °F /  6.3 °C 30in /  1014.7hPa SSO 3.1mph /  5km/h 5mph /  8km/h 66.7% 0in /  0.0mm
22:24 54.3 °F /  12.4 °C 43.9 °F /  6.6 °C 30in /  1014.8hPa SSE 3.1mph /  5km/h 5.9mph /  9.5km/h 67.5% 0in /  0.0mm
22:29 54.1 °F /  12.3 °C 43.9 °F /  6.6 °C 30in /  1014.8hPa SE 3.1mph /  5km/h 6mph /  9.7km/h 68.5% 0in /  0.0mm
22:34 53.6 °F /  12 °C 44.1 °F /  6.7 °C 30in /  1014.8hPa SE 3.1mph /  5km/h 5.8mph /  9.3km/h 70.3% 0in /  0.0mm
22:39 53.1 °F /  11.7 °C 44.2 °F /  6.8 °C 30in /  1014.8hPa SE 3.1mph /  5km/h 6mph /  9.7km/h 72.1% 0in /  0.0mm
22:44 52.7 °F /  11.5 °C 44.2 °F /  6.8 °C 30in /  1014.8hPa SSE 2.7mph /  4.4km/h 5mph /  8km/h 72.7% 0in /  0.0mm
22:49 52.3 °F /  11.3 °C 43.5 °F /  6.4 °C 30in /  1014.8hPa NO 2.4mph /  3.9km/h 5mph /  8km/h 72.1% 0in /  0.0mm
22:54 52 °F /  11.1 °C 43.5 °F /  6.4 °C 30in /  1014.8hPa NO 1.8mph /  2.9km/h 3.1mph /  5km/h 73% 0in /  0.0mm
22:59 51.6 °F /  10.9 °C 43.2 °F /  6.2 °C 30in /  1014.7hPa NO 1.4mph /  2.2km/h 3.5mph /  5.6km/h 73% 0in /  0.0mm
23:04 51.4 °F /  10.8 °C 43.3 °F /  6.3 °C 30in /  1014.7hPa NO 1.4mph /  2.2km/h 3.5mph /  5.6km/h 73.8% 0in /  0.0mm
23:09 51.4 °F /  10.8 °C 43.3 °F /  6.3 °C 30in /  1014.7hPa NO 1.4mph /  2.2km/h 3mph /  4.8km/h 74% 0in /  0.0mm
23:14 51.3 °F /  10.7 °C 43.5 °F /  6.4 °C 30in /  1014.7hPa OSO 1.4mph /  2.2km/h 4.7mph /  7.6km/h 74.8% 0in /  0.0mm
23:19 51.3 °F /  10.7 °C 43.9 °F /  6.6 °C 30in /  1014.7hPa SO 1.4mph /  2.2km/h 5mph /  8km/h 75.9% 0in /  0.0mm
23:24 51.4 °F /  10.8 °C 43.9 °F /  6.6 °C 30in /  1014.7hPa SO 2mph /  3.2km/h 5mph /  8km/h 75.4% 0in /  0.0mm
23:29 51.4 °F /  10.8 °C 43.9 °F /  6.6 °C 30in /  1014.5hPa SO 2.4mph /  3.9km/h 2.4mph /  3.9km/h 75% 0in /  0.0mm
23:34 51.4 °F /  10.8 °C 44.1 °F /  6.7 °C 30in /  1014.5hPa SO 1.1mph /  1.7km/h 2.3mph /  3.7km/h 75.9% 0in /  0.0mm
23:39 51.3 °F /  10.7 °C 43.7 °F /  6.5 °C 30in /  1014.5hPa Calm   2.4mph /  3.9km/h 75.3% 0in /  0.0mm
23:44 51.3 °F /  10.7 °C 44.1 °F /  6.7 °C 30in /  1014.5hPa Calm   3.5mph /  5.6km/h 76% 0in /  0.0mm
23:49 51.1 °F /  10.6 °C 43.9 °F /  6.6 °C 30in /  1014.5hPa Calm   4.6mph /  7.4km/h 76.1% 0in /  0.0mm
23:54 51.1 °F /  10.6 °C 44.1 °F /  6.7 °C 30in /  1014.5hPa SE 1.4mph /  2.3km/h 5.8mph /  9.3km/h 77% 0in /  0.0mm
23:59 50.7 °F /  10.4 °C 44.1 °F /  6.7 °C 30in /  1014.4hPa SSE 2.4mph /  3.9km/h 6mph /  9.7km/h 77.6% 0in /  0.0mm
Murcia-Puente Tocinos, Espa?a
Compliments of Weather Underground - 2.75 mb

La estación de MeteoMurcia.com, publica sus datos en los siguientes proyectos:

Weather Underground PWS IMURCIAP2 Meteoclimatic www.awekas.at

W3Counter
Web Analytics